Hood River, Oregon
Current Conditions -  °F | °C
As of 6:59 AM on Friday 31 Oct 2014 (Local Time) from K4S2 Reporting Station
Moderate Rain Moderate Rain  
Wind Chill: 54°   Ceiling: 1500
Heat Index: 54°   Visibility: 7mi
Dew Point: 52°   Wind: 0mph
Humidity: 94%   Direction: NA
Pressure: 29.69"   Gusts: NA
Location:  45.71°N, 121.52°W
Report Text: K4S2 311359Z AUTO 00000KT 7SM RA BKN015 BKN038 OVC075 12/11 A2969 RMK AO2 SLP071 T01200110
Loading
Personal Weather Stations






























Interactive Weather Map New forecast layout! Learn more

10-Day Weather Forecast

Advertisements
Track Severe Weather on mobile